createdAt,value
2022-09-10T00:00:17.928Z,7.32
2022-09-10T00:02:48.017Z,6.78
2022-09-10T00:05:18.281Z,8.38
2022-09-10T00:07:50.559Z,7.60
2022-09-10T00:10:20.445Z,7.18
2022-09-10T00:12:51.350Z,7.55
2022-09-10T00:15:21.197Z,8.27
2022-09-10T00:17:50.966Z,7.18
2022-09-10T00:20:20.857Z,7.82
2022-09-10T00:22:54.089Z,7.25
2022-09-10T00:25:23.763Z,7.93
2022-09-10T00:27:53.445Z,9.07
2022-09-10T00:30:23.167Z,8.38
2022-09-10T00:32:53.299Z,8.40
2022-09-10T00:35:23.024Z,8.63
2022-09-10T00:37:55.293Z,9.98
2022-09-10T00:40:25.632Z,9.40
2022-09-10T00:42:55.410Z,10.48
2022-09-10T00:45:27.872Z,10.68
2022-09-10T00:48:01.808Z,10.13
2022-09-10T00:50:34.658Z,11.85
2022-09-10T00:53:11.438Z,11.20
2022-09-10T00:55:44.140Z,11.25
2022-09-10T00:58:16.612Z,11.63
2022-09-10T01:00:46.287Z,10.60
2022-09-10T01:03:21.469Z,10.68
2022-09-10T01:05:55.103Z,9.90
2022-09-10T01:08:27.576Z,9.73
2022-09-10T01:11:11.371Z,13.45
2022-09-10T01:13:54.359Z,11.23
2022-09-10T01:16:30.873Z,11.95
2022-09-10T01:19:13.082Z,12.73
2022-09-10T01:21:49.680Z,11.73
2022-09-10T01:24:44.010Z,15.98
2022-09-10T01:27:40.862Z,13.93
2022-09-10T01:30:14.927Z,12.05
2022-09-10T01:33:00.601Z,13.15
2022-09-10T01:35:34.540Z,12.30
2022-09-10T01:38:09.508Z,11.90
2022-09-10T01:40:40.220Z,12.82
2022-09-10T01:43:13.943Z,12.23
2022-09-10T01:45:55.097Z,11.85
2022-09-10T01:48:47.723Z,12.07
2022-09-10T01:51:25.667Z,11.98
2022-09-10T01:54:11.647Z,11.40
2022-09-10T01:56:49.430Z,13.95
2022-09-10T01:59:31.142Z,12.02
2022-09-10T02:02:05.371Z,11.30
2022-09-10T02:04:36.761Z,11.05
2022-09-10T02:07:08.715Z,12.35
2022-09-10T02:09:39.329Z,12.68
2022-09-10T02:12:10.202Z,12.68
2022-09-10T02:14:43.181Z,12.82
2022-09-10T02:17:13.041Z,13.07
2022-09-10T02:19:43.222Z,14.40
2022-09-10T02:22:14.310Z,14.57
2022-09-10T02:24:44.380Z,13.88
2022-09-10T02:27:15.100Z,14.82
2022-09-10T02:29:47.398Z,13.07
2022-09-10T02:32:17.442Z,12.73
2022-09-10T02:34:47.148Z,13.50
2022-09-10T02:37:16.946Z,13.10
2022-09-10T02:39:46.995Z,14.00
2022-09-10T02:42:18.090Z,17.30
2022-09-10T02:44:50.419Z,16.35
2022-09-10T02:47:20.083Z,16.15
2022-09-10T02:49:49.714Z,14.68
2022-09-10T02:52:19.639Z,14.48
2022-09-10T02:54:49.298Z,14.35
2022-09-10T02:57:18.966Z,14.63
2022-09-10T02:59:51.235Z,14.65
2022-09-10T03:02:21.263Z,16.48
2022-09-10T03:04:50.966Z,15.55
2022-09-10T03:07:20.899Z,15.90
2022-09-10T03:09:50.839Z,15.73
2022-09-10T03:12:21.969Z,14.10
2022-09-10T03:14:54.236Z,15.07
2022-09-10T03:17:24.099Z,15.60
2022-09-10T03:19:53.843Z,15.75
2022-09-10T03:22:23.520Z,16.67
2022-09-10T03:24:54.297Z,16.50
2022-09-10T03:27:24.064Z,17.67
2022-09-10T03:29:56.376Z,15.30
2022-09-10T03:32:26.190Z,14.90
2022-09-10T03:34:55.948Z,17.38
2022-09-10T03:37:25.650Z,17.48
2022-09-10T03:39:55.373Z,17.90
2022-09-10T03:42:25.217Z,16.60
2022-09-10T03:44:57.477Z,17.38
2022-09-10T03:47:30.064Z,16.85
2022-09-10T03:50:00.075Z,16.25
2022-09-10T03:52:30.179Z,16.55
2022-09-10T03:54:59.945Z,16.92
2022-09-10T03:57:29.600Z,18.10
2022-09-10T04:00:01.892Z,17.52
2022-09-10T04:02:31.610Z,18.13
2022-09-10T04:05:01.288Z,17.50
2022-09-10T04:07:30.979Z,15.77
2022-09-10T04:10:00.650Z,18.45
2022-09-10T04:12:30.407Z,17.08
2022-09-10T04:15:04.717Z,16.75
2022-09-10T04:17:34.918Z,16.05
2022-09-10T04:20:05.030Z,17.50
2022-09-10T04:22:34.723Z,16.73
2022-09-10T04:25:04.469Z,18.27
2022-09-10T04:27:34.125Z,19.60
2022-09-10T04:30:06.895Z,18.45
2022-09-10T04:32:36.780Z,17.42
2022-09-10T04:35:07.732Z,16.60
2022-09-10T04:37:37.469Z,18.90
2022-09-10T04:40:08.679Z,18.17
2022-09-10T04:42:38.338Z,21.40
2022-09-10T04:45:12.937Z,19.90
2022-09-10T04:47:42.604Z,17.75
2022-09-10T04:50:12.946Z,18.98
2022-09-10T04:52:43.396Z,18.48
2022-09-10T04:55:13.699Z,18.40
2022-09-10T04:57:43.352Z,19.33
2022-09-10T05:00:16.586Z,19.13
2022-09-10T05:02:46.766Z,19.33
2022-09-10T05:05:16.737Z,18.95
2022-09-10T05:07:46.399Z,18.02
2022-09-10T05:10:16.150Z,17.83
2022-09-10T05:12:45.844Z,17.73
2022-09-10T05:15:18.333Z,18.55
2022-09-10T05:17:48.113Z,17.92
2022-09-10T05:20:18.038Z,20.15
2022-09-10T05:22:47.732Z,20.27
2022-09-10T05:25:17.958Z,20.83
2022-09-10T05:27:48.425Z,20.40
2022-09-10T05:30:21.231Z,20.45
2022-09-10T05:32:53.645Z,17.52
2022-09-10T05:35:23.329Z,20.05
2022-09-10T05:37:53.191Z,17.52
2022-09-10T05:40:23.549Z,18.83
2022-09-10T05:42:53.227Z,18.25
2022-09-10T05:45:26.105Z,20.98
2022-09-10T05:47:55.961Z,22.00
2022-09-10T05:50:25.691Z,19.30
2022-09-10T05:52:55.347Z,21.65
2022-09-10T05:55:25.239Z,19.60
2022-09-10T05:57:55.942Z,19.50
2022-09-10T06:00:28.419Z,18.73
2022-09-10T06:02:58.144Z,23.75
2022-09-10T06:05:28.415Z,23.40
2022-09-10T06:07:58.084Z,19.80
2022-09-10T06:10:27.824Z,20.67
2022-09-10T06:12:57.507Z,21.63
2022-09-10T06:15:29.744Z,22.15
2022-09-10T06:17:59.614Z,20.30
2022-09-10T06:20:29.732Z,24.42
2022-09-10T06:22:59.440Z,19.67
2022-09-10T06:25:29.117Z,22.13
2022-09-10T06:27:58.848Z,22.45
2022-09-10T06:30:31.316Z,21.52
2022-09-10T06:33:01.172Z,18.92
2022-09-10T06:35:31.469Z,19.65
2022-09-10T06:38:02.107Z,19.23
2022-09-10T06:40:33.002Z,18.90
2022-09-10T06:43:04.324Z,18.60
2022-09-10T06:45:36.628Z,22.70
2022-09-10T06:50:58.132Z,20.85
2022-09-10T06:53:33.417Z,19.17
2022-09-10T06:56:03.757Z,20.52
2022-09-10T06:58:35.267Z,19.42
2022-09-10T07:01:14.837Z,18.17
2022-09-10T07:03:45.814Z,19.25
2022-09-10T07:06:17.366Z,18.75
2022-09-10T07:08:47.554Z,18.02
2022-09-10T07:11:18.724Z,19.00
2022-09-10T07:13:53.395Z,18.63
2022-09-10T07:16:27.403Z,19.25
2022-09-10T07:18:59.221Z,21.35
2022-09-10T07:21:31.012Z,20.80
2022-09-10T07:24:02.059Z,18.40
2022-09-10T07:26:32.316Z,18.35
2022-09-10T07:29:02.709Z,18.17
2022-09-10T07:31:38.335Z,17.30
2022-09-10T07:34:08.752Z,19.52
2022-09-10T07:36:38.444Z,18.25
2022-09-10T07:39:08.166Z,17.88
2022-09-10T07:41:37.892Z,16.08
2022-09-10T07:44:07.715Z,17.77
2022-09-10T07:46:40.568Z,16.98
2022-09-10T07:49:12.192Z,18.05
2022-09-10T07:51:42.847Z,19.20
2022-09-10T07:54:16.443Z,19.67
2022-09-10T07:56:46.306Z,21.52
2022-09-10T07:59:16.213Z,12.48
2022-09-10T08:01:50.709Z,14.98
2022-09-10T08:04:20.394Z,16.02
2022-09-10T08:06:50.096Z,15.07
2022-09-10T08:09:20.615Z,14.35
2022-09-10T08:11:50.301Z,13.43
2022-09-10T08:14:20.227Z,18.58
2022-09-10T08:16:52.716Z,17.23
2022-09-10T08:19:22.400Z,15.30
2022-09-10T08:21:52.037Z,16.95
2022-09-10T08:24:21.968Z,14.30
2022-09-10T08:26:52.871Z,15.15
2022-09-10T08:29:23.389Z,14.18
2022-09-10T08:31:55.708Z,14.75
2022-09-10T08:34:26.427Z,15.75
2022-09-10T08:36:56.089Z,14.50
2022-09-10T08:39:25.767Z,18.45
2022-09-10T08:42:00.524Z,15.82
2022-09-10T08:44:38.795Z,17.48
2022-09-10T08:47:23.926Z,17.92
2022-09-10T08:49:56.955Z,14.77
2022-09-10T08:52:31.544Z,17.63
2022-09-10T08:55:07.916Z,16.90
2022-09-10T08:57:45.269Z,15.73
2022-09-10T09:00:21.083Z,14.77
2022-09-10T09:03:02.332Z,16.52
2022-09-10T09:05:42.218Z,16.77
2022-09-10T09:08:15.232Z,15.45
2022-09-10T09:10:51.190Z,21.13
2022-09-10T09:13:42.265Z,19.27
2022-09-10T09:16:29.340Z,19.27
2022-09-10T09:19:17.381Z,20.80
2022-09-10T09:21:54.845Z,17.60
2022-09-10T09:24:27.000Z,19.08
2022-09-10T09:27:03.079Z,17.90
2022-09-10T09:29:38.286Z,18.48
2022-09-10T09:32:09.367Z,16.63
2022-09-10T09:34:45.148Z,16.52
2022-09-10T09:37:20.964Z,17.40
2022-09-10T09:40:04.980Z,17.40
2022-09-10T09:42:43.166Z,16.23
2022-09-10T09:45:25.287Z,15.60
2022-09-10T09:47:55.369Z,16.65
2022-09-10T09:50:27.762Z,14.70
2022-09-10T09:52:59.733Z,12.88
2022-09-10T09:55:33.864Z,15.50
2022-09-10T09:58:32.433Z,13.85
2022-09-10T10:01:20.977Z,16.27
2022-09-10T10:03:54.668Z,14.07
2022-09-10T10:06:29.433Z,16.85
2022-09-10T10:09:02.386Z,15.55
2022-09-10T10:11:48.623Z,16.58
2022-09-10T10:14:41.632Z,17.27
2022-09-10T10:17:39.865Z,16.50
2022-09-10T10:20:13.188Z,15.82
2022-09-10T10:22:46.571Z,15.35
2022-09-10T10:25:38.439Z,14.25
2022-09-10T10:28:18.385Z,15.57
2022-09-10T10:30:55.061Z,13.85
2022-09-10T10:33:30.758Z,13.93
2022-09-10T10:36:13.390Z,13.75
2022-09-10T10:38:50.336Z,15.80
2022-09-10T10:41:44.824Z,15.02
2022-09-10T10:44:27.819Z,15.10
2022-09-10T10:47:07.643Z,12.48
2022-09-10T10:49:52.294Z,11.35
2022-09-10T10:52:31.895Z,9.27
2022-09-10T10:55:15.862Z,10.48
2022-09-10T10:58:17.280Z,11.25
2022-09-10T11:00:51.568Z,9.65
2022-09-10T11:03:28.117Z,10.45
2022-09-10T11:06:04.021Z,11.05
2022-09-10T11:08:38.871Z,11.25
2022-09-10T11:11:16.106Z,10.95
2022-09-10T11:13:50.641Z,9.68
2022-09-10T11:16:25.942Z,10.90
2022-09-10T11:19:03.368Z,8.80
2022-09-10T11:21:38.809Z,11.07
2022-09-10T11:24:17.466Z,10.35
2022-09-10T11:26:54.421Z,10.05
2022-09-10T11:29:38.009Z,9.93
2022-09-10T11:32:15.442Z,10.45
2022-09-10T11:34:55.094Z,11.05
2022-09-10T11:37:37.521Z,11.65
2022-09-10T11:40:16.103Z,11.98
2022-09-10T11:42:53.760Z,12.25
2022-09-10T11:45:30.852Z,12.45
2022-09-10T11:48:04.664Z,11.32
2022-09-10T11:50:40.880Z,11.70
2022-09-10T11:53:19.635Z,11.38
2022-09-10T11:56:02.698Z,11.02
2022-09-10T11:58:46.156Z,10.25
2022-09-10T12:01:26.088Z,10.75
2022-09-10T12:04:15.366Z,11.82
2022-09-10T12:06:53.927Z,10.57
2022-09-10T12:09:30.457Z,10.00
2022-09-10T12:12:07.962Z,9.40
2022-09-10T12:14:41.595Z,10.68
2022-09-10T12:17:17.896Z,9.40
2022-09-10T12:19:50.960Z,10.85
2022-09-10T12:22:24.112Z,9.38
2022-09-10T12:24:56.538Z,9.68
2022-09-10T12:27:47.749Z,9.95
2022-09-10T12:30:59.181Z,8.30
2022-09-10T12:34:17.864Z,9.43
2022-09-10T12:37:21.668Z,8.55
2022-09-10T12:39:52.369Z,9.05
2022-09-10T12:42:37.029Z,12.65
2022-09-10T12:45:07.248Z,14.63
2022-09-10T12:47:54.751Z,14.18
2022-09-10T12:50:46.558Z,14.20
2022-09-10T12:53:36.237Z,13.98
2022-09-10T12:56:32.706Z,14.43
2022-09-10T12:59:24.506Z,12.35
2022-09-10T13:01:54.874Z,8.60
2022-09-10T13:04:31.424Z,15.85
2022-09-10T13:07:07.634Z,16.50
2022-09-10T13:09:43.785Z,18.42
2022-09-10T13:12:21.227Z,18.92
2022-09-10T13:14:54.267Z,20.70
2022-09-10T13:17:40.953Z,19.90
2022-09-10T13:20:30.985Z,19.85
2022-09-10T13:23:04.704Z,19.02
2022-09-10T13:25:39.873Z,17.42
2022-09-10T13:28:41.020Z,17.52
2022-09-10T13:31:19.547Z,15.68
2022-09-10T13:34:03.948Z,17.08
2022-09-10T13:36:38.515Z,16.38
2022-09-10T13:39:30.605Z,16.00
2022-09-10T13:42:12.991Z,15.43
2022-09-10T13:45:27.265Z,15.00
2022-09-10T13:48:06.490Z,13.85
2022-09-10T13:50:41.711Z,13.70
2022-09-10T13:53:16.152Z,13.80
2022-09-10T13:56:00.054Z,13.23
2022-09-10T13:58:34.869Z,13.27
2022-09-10T14:01:13.656Z,13.15
2022-09-10T14:03:44.996Z,10.98
2022-09-10T14:06:19.438Z,11.30
2022-09-10T14:08:55.151Z,12.38
2022-09-10T14:11:29.266Z,11.73
2022-09-10T14:14:06.217Z,10.90
2022-09-10T14:16:41.012Z,11.88
2022-09-10T14:19:17.872Z,14.07
2022-09-10T14:21:50.496Z,14.40
2022-09-10T14:24:48.366Z,13.07
2022-09-10T14:27:25.400Z,12.68
2022-09-10T14:29:56.498Z,12.75
2022-09-10T14:32:34.537Z,12.85
2022-09-10T14:35:43.192Z,11.55
2022-09-10T14:38:31.957Z,12.75
2022-09-10T14:41:08.522Z,12.40
2022-09-10T14:43:42.710Z,12.52
2022-09-10T14:46:33.159Z,12.15
2022-09-10T14:49:12.149Z,10.80
2022-09-10T14:51:43.124Z,10.07
2022-09-10T14:54:15.066Z,11.65
2022-09-10T14:56:48.814Z,10.48
2022-09-10T14:59:27.911Z,10.50
2022-09-10T15:01:57.602Z,9.25
2022-09-10T15:04:30.243Z,9.32
2022-09-10T15:07:02.858Z,8.65
2022-09-10T15:09:33.340Z,9.02
2022-09-10T15:12:06.330Z,11.07
2022-09-10T15:14:39.695Z,9.95
2022-09-10T15:17:09.491Z,10.90
2022-09-10T15:19:39.187Z,8.73
2022-09-10T15:22:09.179Z,8.93
2022-09-10T15:24:52.724Z,8.90
2022-09-10T15:27:28.713Z,9.82
2022-09-10T15:30:01.210Z,9.85
2022-09-10T15:32:30.980Z,9.77
2022-09-10T15:35:01.266Z,9.77
2022-09-10T15:37:31.187Z,9.65
2022-09-10T15:40:01.378Z,9.27
2022-09-10T15:42:31.124Z,9.68
2022-09-10T15:45:03.446Z,9.68
2022-09-10T15:47:33.764Z,9.88
2022-09-10T15:50:04.126Z,11.23
2022-09-10T15:52:33.836Z,11.15
2022-09-10T15:55:03.522Z,10.68
2022-09-10T15:57:33.835Z,10.13
2022-09-10T16:00:07.373Z,10.70
2022-09-10T16:02:37.256Z,9.85
2022-09-10T16:05:07.778Z,9.85
2022-09-10T16:07:37.479Z,9.60
2022-09-10T16:10:09.293Z,9.68
2022-09-10T16:12:39.164Z,9.13
2022-09-10T16:15:12.419Z,9.10
2022-09-10T16:17:42.432Z,8.73
2022-09-10T16:20:13.172Z,9.35
2022-09-10T16:22:42.975Z,8.60
2022-09-10T16:25:13.100Z,10.45
2022-09-10T16:27:43.507Z,10.05
2022-09-10T16:30:16.655Z,10.35
2022-09-10T16:32:46.430Z,11.20
2022-09-10T16:35:16.419Z,9.77
2022-09-10T16:37:46.145Z,10.90
2022-09-10T16:40:19.385Z,10.50
2022-09-10T16:42:49.665Z,9.48
2022-09-10T16:45:21.978Z,10.23
2022-09-10T16:47:51.945Z,9.73
2022-09-10T16:50:23.262Z,10.80
2022-09-10T16:52:52.956Z,10.00
2022-09-10T16:55:25.617Z,10.75
2022-09-10T16:57:55.346Z,9.75
2022-09-10T17:00:28.336Z,10.32
2022-09-10T17:02:58.610Z,8.52
2022-09-10T17:05:29.030Z,9.10
2022-09-10T17:08:00.445Z,8.18
2022-09-10T17:10:30.188Z,8.23
2022-09-10T17:13:00.074Z,7.32
2022-09-10T17:15:32.536Z,10.57
2022-09-10T17:18:03.584Z,12.07
2022-09-10T17:20:33.959Z,11.48
2022-09-10T17:23:03.910Z,11.65
2022-09-10T17:25:33.663Z,10.52
2022-09-10T17:28:03.822Z,10.90
2022-09-10T17:30:36.121Z,9.63
2022-09-10T17:33:10.867Z,11.00
2022-09-10T17:35:40.664Z,9.23
2022-09-10T17:38:11.385Z,10.15
2022-09-10T17:40:41.251Z,10.57
2022-09-10T17:43:11.810Z,11.13
2022-09-10T17:45:44.354Z,10.80
2022-09-10T17:48:15.426Z,10.55
2022-09-10T17:50:48.804Z,10.20
2022-09-10T17:53:19.270Z,9.63
2022-09-10T17:55:49.382Z,8.90
2022-09-10T17:58:19.331Z,13.00
2022-09-10T18:00:51.994Z,11.85
2022-09-10T18:03:21.715Z,13.00
2022-09-10T18:05:51.508Z,11.13
2022-09-10T18:08:22.143Z,13.27
2022-09-10T18:10:52.668Z,12.43
2022-09-10T18:13:23.309Z,14.07
2022-09-10T18:15:55.638Z,13.75
2022-09-10T18:18:25.474Z,16.83
2022-09-10T18:20:56.528Z,16.73
2022-09-10T18:23:26.272Z,17.42
2022-09-10T18:25:55.993Z,17.13
2022-09-10T18:28:25.712Z,16.38
2022-09-10T18:30:58.393Z,13.23
2022-09-10T18:33:28.076Z,15.13
2022-09-10T18:35:57.755Z,14.90
2022-09-10T18:38:29.544Z,15.95
2022-09-10T18:40:59.277Z,15.60
2022-09-10T18:43:28.981Z,17.65
2022-09-10T18:46:05.350Z,16.70
2022-09-10T18:48:36.315Z,15.48
2022-09-10T18:51:08.679Z,15.90
2022-09-10T18:53:38.802Z,17.08
2022-09-10T18:56:10.045Z,15.63
2022-09-10T18:58:40.417Z,17.20
2022-09-10T19:01:14.675Z,17.70
2022-09-10T19:03:46.541Z,16.77
2022-09-10T19:06:18.857Z,14.82
2022-09-10T19:08:53.800Z,15.65
2022-09-10T19:11:24.576Z,14.27
2022-09-10T19:13:56.184Z,14.48
2022-09-10T19:16:30.713Z,14.63
2022-09-10T19:19:02.328Z,13.77
2022-09-10T19:21:32.947Z,16.30
2022-09-10T19:24:03.845Z,14.32
2022-09-10T19:26:36.577Z,14.73
2022-09-10T19:29:07.173Z,14.80
2022-09-10T19:31:39.879Z,13.43
2022-09-10T19:34:10.832Z,16.10
2022-09-10T19:36:40.806Z,15.10
2022-09-10T19:39:12.801Z,15.55
2022-09-10T19:41:44.643Z,18.58
2022-09-10T19:44:18.385Z,17.60
2022-09-10T19:46:50.904Z,17.70
2022-09-10T19:49:20.642Z,13.85
2022-09-10T19:51:50.369Z,14.32
2022-09-10T19:54:20.041Z,14.45
2022-09-10T19:56:49.910Z,14.13
2022-09-10T19:59:19.574Z,15.75
2022-09-10T20:01:51.909Z,16.23
2022-09-10T20:04:21.646Z,18.20
2022-09-10T20:06:51.426Z,15.55
2022-09-10T20:09:21.257Z,15.52
2022-09-10T20:11:51.224Z,16.27
2022-09-10T20:14:21.149Z,14.50
2022-09-10T20:16:54.804Z,15.65
2022-09-10T20:19:24.491Z,16.00
2022-09-10T20:21:54.189Z,14.20
2022-09-10T20:24:24.031Z,13.23
2022-09-10T20:26:54.354Z,14.27
2022-09-10T20:29:25.599Z,13.65
2022-09-10T20:31:58.174Z,15.10
2022-09-10T20:34:28.207Z,14.13
2022-09-10T20:36:58.245Z,12.65
2022-09-10T20:39:27.949Z,12.25
2022-09-10T20:41:57.883Z,11.63
2022-09-10T20:44:28.016Z,10.77
2022-09-10T20:47:00.339Z,13.02
2022-09-10T20:49:30.022Z,11.57
2022-09-10T20:51:59.863Z,9.55
2022-09-10T20:54:29.571Z,9.68
2022-09-10T20:56:59.533Z,9.55
2022-09-10T20:59:29.328Z,10.40
2022-09-10T21:02:01.793Z,10.82
2022-09-10T21:04:31.532Z,14.00
2022-09-10T21:07:01.271Z,11.73
2022-09-10T21:09:30.943Z,12.02
2022-09-10T21:12:00.620Z,10.60
2022-09-10T21:14:31.695Z,13.13
2022-09-10T21:17:03.970Z,11.57
2022-09-10T21:19:33.799Z,12.85
2022-09-10T21:22:03.492Z,14.15
2022-09-10T21:24:33.186Z,14.38
2022-09-10T21:27:03.270Z,12.27
2022-09-10T21:29:32.942Z,13.07
2022-09-10T21:32:05.705Z,12.30
2022-09-10T21:34:35.895Z,14.13
2022-09-10T21:37:05.644Z,14.32
2022-09-10T21:39:35.567Z,13.60
2022-09-10T21:42:05.353Z,15.20
2022-09-10T21:44:35.064Z,12.68
2022-09-10T21:47:11.132Z,12.98
2022-09-10T21:49:40.789Z,12.15
2022-09-10T21:52:10.580Z,13.23
2022-09-10T21:54:40.330Z,12.73
2022-09-10T21:57:11.880Z,12.48
2022-09-10T21:59:41.793Z,12.35
2022-09-10T22:02:17.070Z,12.07
2022-09-10T22:04:47.059Z,12.40
2022-09-10T22:07:16.742Z,11.27
2022-09-10T22:09:46.724Z,10.38
2022-09-10T22:12:16.598Z,11.07
2022-09-10T22:14:46.660Z,11.30
2022-09-10T22:17:19.589Z,10.88
2022-09-10T22:19:51.929Z,10.98
2022-09-10T22:22:21.739Z,11.25
2022-09-10T22:24:52.296Z,10.48
2022-09-10T22:27:22.137Z,11.00
2022-09-10T22:29:51.859Z,10.82
2022-09-10T22:32:24.171Z,10.40
2022-09-10T22:34:54.252Z,9.80
2022-09-10T22:37:26.996Z,10.82
2022-09-10T22:39:56.707Z,11.35
2022-09-10T22:42:26.663Z,10.40
2022-09-10T22:44:57.503Z,10.68
2022-09-10T22:47:30.201Z,9.63
2022-09-10T22:50:04.346Z,10.10
2022-09-10T22:52:34.526Z,8.98
2022-09-10T22:55:04.273Z,9.00
2022-09-10T22:57:34.008Z,9.10
2022-09-10T23:00:04.120Z,8.75
2022-09-10T23:02:39.631Z,9.07
2022-09-10T23:05:10.052Z,8.73
2022-09-10T23:07:39.881Z,9.15
2022-09-10T23:10:10.566Z,7.82
2022-09-10T23:12:40.511Z,8.25
2022-09-10T23:15:11.661Z,7.85
2022-09-10T23:17:44.364Z,7.15
2022-09-10T23:20:14.184Z,7.95
2022-09-10T23:22:44.063Z,7.90
2022-09-10T23:25:13.782Z,7.40
2022-09-10T23:27:43.540Z,7.25
2022-09-10T23:30:16.201Z,6.43
2022-09-10T23:32:49.118Z,6.40
2022-09-10T23:35:18.986Z,6.63
2022-09-10T23:37:48.683Z,6.70
2022-09-10T23:40:20.997Z,6.65
2022-09-10T23:42:52.856Z,6.38
2022-09-10T23:45:22.829Z,6.72
2022-09-10T23:47:55.542Z,6.93
2022-09-10T23:50:25.351Z,7.50
2022-09-10T23:52:55.198Z,6.30
2022-09-10T23:55:25.005Z,6.22
2022-09-10T23:57:54.861Z,5.53
